createdAt,value
2022-08-12T00:00:05.260Z,40.04
2022-08-12T00:02:47.467Z,40.75
2022-08-12T00:05:31.841Z,41.38
2022-08-12T00:08:14.021Z,40.59
2022-08-12T00:10:56.341Z,40.92
2022-08-12T00:13:38.536Z,41.19
2022-08-12T00:16:23.647Z,41.11
2022-08-12T00:19:05.852Z,41.89
2022-08-12T00:21:48.391Z,41.85
2022-08-12T00:24:30.513Z,42.26
2022-08-12T00:27:13.802Z,42.03
2022-08-12T00:29:56.859Z,41.44
2022-08-12T00:32:50.957Z,42.24
2022-08-12T00:35:39.093Z,42.55
2022-08-12T00:38:22.797Z,43.12
2022-08-12T00:41:04.958Z,43.41
2022-08-12T00:43:37.582Z,42.96
2022-08-12T00:46:23.513Z,43.31
2022-08-12T00:48:56.383Z,43.60
2022-08-12T00:51:47.594Z,43.12
2022-08-12T00:54:17.361Z,43.81
2022-08-12T00:56:52.193Z,44.08
2022-08-12T00:59:24.766Z,44.59
2022-08-12T01:02:02.283Z,43.95
2022-08-12T01:04:59.519Z,44.53
2022-08-12T01:07:43.356Z,44.45
2022-08-12T01:10:29.483Z,44.78
2022-08-12T01:13:18.519Z,45.22
2022-08-12T01:15:52.282Z,45.68
2022-08-12T01:18:23.605Z,45.76
2022-08-12T01:21:09.598Z,45.91
2022-08-12T01:24:23.014Z,45.33
2022-08-12T01:26:58.983Z,45.54
2022-08-12T01:29:33.065Z,46.05
2022-08-12T01:32:08.892Z,46.20
2022-08-12T01:34:40.227Z,46.39
2022-08-12T01:37:11.790Z,46.88
2022-08-12T01:40:33.785Z,46.43
2022-08-12T01:42:48.713Z,47.24
2022-08-12T01:45:24.682Z,47.35
2022-08-12T01:48:08.402Z,47.56
2022-08-12T01:50:43.869Z,47.49
2022-08-12T01:53:17.317Z,48.21
2022-08-12T01:55:50.504Z,48.12
2022-08-12T01:58:32.024Z,47.68
2022-08-12T02:01:03.908Z,48.01
2022-08-12T02:04:04.365Z,48.40
2022-08-12T02:06:52.054Z,48.19
2022-08-12T02:09:48.012Z,47.31
2022-08-12T02:12:28.544Z,47.74
2022-08-12T02:15:13.183Z,47.31
2022-08-12T02:18:04.054Z,47.09
2022-08-12T02:20:52.462Z,46.85
2022-08-12T02:23:28.238Z,46.76
2022-08-12T02:26:01.525Z,47.16
2022-08-12T02:28:32.384Z,46.72
2022-08-12T02:31:09.113Z,47.79
2022-08-12T02:33:41.651Z,47.53
2022-08-12T02:36:11.753Z,47.76
2022-08-12T02:38:45.808Z,47.91
2022-08-12T02:41:18.357Z,47.71
2022-08-12T02:43:54.585Z,48.30
2022-08-12T02:46:32.559Z,47.40
2022-08-12T02:49:07.768Z,47.71
2022-08-12T02:51:44.547Z,47.39
2022-08-12T02:54:14.854Z,47.15
2022-08-12T02:56:47.121Z,47.26
2022-08-12T02:59:24.485Z,47.12
2022-08-12T03:01:58.258Z,46.87
2022-08-12T03:04:33.860Z,47.34
2022-08-12T03:07:14.900Z,47.53
2022-08-12T03:10:05.337Z,46.89
2022-08-12T03:12:44.810Z,46.59
2022-08-12T03:15:22.940Z,47.13
2022-08-12T03:18:26.887Z,48.04
2022-08-12T03:20:52.594Z,47.32
2022-08-12T03:23:29.806Z,47.42
2022-08-12T03:26:02.903Z,47.18
2022-08-12T03:28:46.949Z,47.53
2022-08-12T03:31:16.893Z,47.54
2022-08-12T03:34:02.265Z,48.29
2022-08-12T03:36:35.755Z,48.71
2022-08-12T03:39:35.936Z,49.30
2022-08-12T03:42:17.069Z,49.15
2022-08-12T03:45:08.378Z,49.85
2022-08-12T03:47:57.677Z,49.71
2022-08-12T03:50:43.100Z,49.70
2022-08-12T03:53:25.728Z,49.51
2022-08-12T03:56:08.684Z,49.29
2022-08-12T03:58:51.828Z,49.31
2022-08-12T04:01:23.270Z,50.13
2022-08-12T04:03:55.888Z,50.35
2022-08-12T04:06:35.496Z,50.62
2022-08-12T04:09:15.930Z,50.15
2022-08-12T04:12:00.615Z,50.15
2022-08-12T04:14:30.853Z,50.83
2022-08-12T04:17:01.444Z,50.37
2022-08-12T04:19:31.546Z,50.77
2022-08-12T04:22:04.074Z,51.67
2022-08-12T04:24:35.690Z,51.64
2022-08-12T04:27:08.715Z,51.16
2022-08-12T04:30:30.137Z,51.30
2022-08-12T04:32:29.332Z,52.13
2022-08-12T04:34:59.148Z,51.87
2022-08-12T04:37:58.825Z,52.22
2022-08-12T04:40:28.033Z,52.62
2022-08-12T04:42:58.758Z,52.78
2022-08-12T04:45:28.584Z,52.93
2022-08-12T04:47:58.538Z,52.83
2022-08-12T04:50:35.689Z,53.57
2022-08-12T04:53:13.142Z,53.02
2022-08-12T04:55:45.967Z,53.41
2022-08-12T04:58:15.774Z,53.30
2022-08-12T05:00:59.629Z,53.66
2022-08-12T05:03:46.041Z,53.96
2022-08-12T05:06:20.853Z,53.88
2022-08-12T05:09:00.753Z,53.81
2022-08-12T05:11:30.802Z,53.83
2022-08-12T05:14:03.115Z,54.13
2022-08-12T05:16:36.015Z,54.25
2022-08-12T05:19:06.253Z,54.65
2022-08-12T05:21:43.296Z,54.64
2022-08-12T05:24:15.704Z,53.27
2022-08-12T05:26:45.433Z,52.23
2022-08-12T05:30:06.438Z,53.06
2022-08-12T05:32:06.859Z,52.12
2022-08-12T05:34:36.820Z,51.51
2022-08-12T05:37:07.083Z,51.32
2022-08-12T05:39:39.565Z,50.64
2022-08-12T05:42:09.775Z,51.07
2022-08-12T05:44:39.804Z,51.55
2022-08-12T05:47:12.113Z,51.36
2022-08-12T05:49:42.545Z,51.26
2022-08-12T05:52:12.383Z,51.45
2022-08-12T05:54:56.953Z,51.00
2022-08-12T05:57:27.430Z,50.56
2022-08-12T05:59:57.203Z,50.34
2022-08-12T06:02:27.047Z,51.07
2022-08-12T06:04:57.869Z,50.70
2022-08-12T06:08:00.910Z,50.18
2022-08-12T06:10:31.592Z,50.47
2022-08-12T06:13:02.692Z,50.05
2022-08-12T06:15:33.477Z,49.50
2022-08-12T06:18:11.449Z,50.32
2022-08-12T06:20:43.972Z,49.08
2022-08-12T06:23:15.486Z,48.78
2022-08-12T06:25:47.832Z,49.24
2022-08-12T06:28:21.340Z,48.75
2022-08-12T06:31:22.182Z,48.75
2022-08-12T06:33:57.870Z,48.06
2022-08-12T06:36:34.383Z,47.81
2022-08-12T06:39:04.186Z,47.21
2022-08-12T06:42:04.987Z,46.22
2022-08-12T06:44:39.612Z,45.34
2022-08-12T06:47:09.710Z,44.93
2022-08-12T06:49:39.474Z,43.78
2022-08-12T06:52:09.831Z,42.57
2022-08-12T06:54:41.321Z,41.91
2022-08-12T06:58:07.049Z,39.69
2022-08-12T07:00:04.256Z,38.80
2022-08-12T07:02:37.994Z,37.97
2022-08-12T07:05:08.698Z,37.50
2022-08-12T07:07:39.038Z,36.97
2022-08-12T07:10:09.795Z,35.74
2022-08-12T07:12:42.690Z,34.91
2022-08-12T07:15:13.548Z,34.82
2022-08-12T07:17:43.769Z,34.20
2022-08-12T07:20:42.583Z,33.18
2022-08-12T07:23:08.666Z,32.91
2022-08-12T07:25:41.453Z,33.56
2022-08-12T07:28:17.613Z,33.51
2022-08-12T07:30:49.411Z,33.08
2022-08-12T07:33:22.454Z,32.79
2022-08-12T07:35:54.253Z,32.15
2022-08-12T07:38:30.791Z,32.08
2022-08-12T07:41:06.347Z,31.64
2022-08-12T07:43:40.535Z,31.17
2022-08-12T07:46:12.942Z,30.51
2022-08-12T07:48:45.035Z,30.85
2022-08-12T07:51:25.216Z,30.53
2022-08-12T07:54:00.261Z,29.45
2022-08-12T07:56:31.610Z,30.35
2022-08-12T07:59:04.136Z,30.16
2022-08-12T08:01:38.081Z,29.73
2022-08-12T08:04:21.670Z,29.69
2022-08-12T08:06:52.455Z,30.02
2022-08-12T08:09:24.976Z,29.61
2022-08-12T08:12:08.054Z,29.78
2022-08-12T08:14:40.741Z,28.68
2022-08-12T08:17:10.577Z,29.31
2022-08-12T08:20:02.151Z,29.38
2022-08-12T08:22:41.708Z,28.82
2022-08-12T08:25:35.338Z,29.05
2022-08-12T08:28:05.517Z,28.87
2022-08-12T08:30:39.158Z,29.28
2022-08-12T08:33:23.453Z,28.87
2022-08-12T08:35:55.243Z,28.47
2022-08-12T08:38:32.992Z,28.72
2022-08-12T08:42:16.165Z,28.54
2022-08-12T08:44:20.685Z,29.05
2022-08-12T08:46:55.752Z,28.86
2022-08-12T08:49:25.854Z,28.74
2022-08-12T08:51:55.898Z,28.18
2022-08-12T08:54:25.691Z,28.31
2022-08-12T08:56:55.440Z,28.15
2022-08-12T08:59:25.283Z,28.81
2022-08-12T09:01:58.056Z,28.24
2022-08-12T09:05:12.753Z,28.57
2022-08-12T09:07:51.906Z,27.52
2022-08-12T09:10:30.495Z,28.48
2022-08-12T09:13:19.319Z,27.68
2022-08-12T09:16:02.343Z,27.59
2022-08-12T09:18:35.786Z,27.55
2022-08-12T09:21:06.574Z,28.19
2022-08-12T09:23:59.614Z,28.69
2022-08-12T09:26:28.991Z,28.14
2022-08-12T09:29:00.790Z,28.52
2022-08-12T09:32:04.157Z,28.01
2022-08-12T09:34:28.937Z,27.74
2022-08-12T09:37:18.547Z,27.57
2022-08-12T09:40:05.578Z,27.94
2022-08-12T09:46:06.718Z,28.35
2022-08-12T09:48:44.441Z,27.51
2022-08-12T09:51:22.175Z,27.98
2022-08-12T09:54:08.506Z,27.35
2022-08-12T09:57:00.399Z,27.48
2022-08-12T10:00:17.899Z,26.92
2022-08-12T10:02:43.900Z,26.77
2022-08-12T10:05:17.841Z,26.50
2022-08-12T10:07:52.916Z,26.32
2022-08-12T10:10:25.160Z,26.70
2022-08-12T10:13:34.246Z,26.71
2022-08-12T10:16:06.433Z,26.96
2022-08-12T10:18:51.805Z,26.30
2022-08-12T10:21:24.191Z,26.83
2022-08-12T10:24:11.106Z,26.72
2022-08-12T10:26:55.329Z,26.36
2022-08-12T10:30:03.290Z,26.05
2022-08-12T10:32:44.814Z,26.33
2022-08-12T10:35:17.609Z,26.16
2022-08-12T10:38:38.615Z,25.60
2022-08-12T10:41:04.034Z,24.82
2022-08-12T10:43:55.795Z,24.36
2022-08-12T10:46:31.397Z,24.55
2022-08-12T10:49:06.511Z,24.57
2022-08-12T10:52:32.351Z,23.97
2022-08-12T10:54:43.370Z,23.17
2022-08-12T10:57:18.205Z,23.58
2022-08-12T11:00:34.110Z,24.34
2022-08-12T11:04:24.604Z,23.80
2022-08-12T11:07:05.152Z,23.52
2022-08-12T11:08:46.534Z,24.27
2022-08-12T11:12:35.593Z,23.96
2022-08-12T11:14:49.211Z,24.33
2022-08-12T11:17:43.462Z,23.58
2022-08-12T11:19:57.273Z,23.29
2022-08-12T11:22:27.033Z,23.09
2022-08-12T11:24:59.651Z,23.16
2022-08-12T11:27:29.653Z,22.94
2022-08-12T11:30:06.837Z,24.28
2022-08-12T11:32:51.794Z,24.24
2022-08-12T11:35:21.860Z,23.92
2022-08-12T11:37:57.846Z,23.54
2022-08-12T11:40:28.884Z,24.32
2022-08-12T11:43:18.618Z,24.38
2022-08-12T11:45:53.100Z,24.11
2022-08-12T11:48:26.986Z,23.67
2022-08-12T11:50:57.520Z,23.54
2022-08-12T11:53:59.965Z,23.78
2022-08-12T11:56:17.009Z,24.28
2022-08-12T12:01:58.658Z,24.29
2022-08-12T12:02:01.388Z,24.64
2022-08-12T12:04:29.659Z,24.47
2022-08-12T12:07:07.224Z,24.99
2022-08-12T12:09:53.105Z,25.49
2022-08-12T12:12:26.025Z,25.03
2022-08-12T12:14:58.623Z,24.95
2022-08-12T12:17:38.483Z,26.12
2022-08-12T12:20:11.647Z,25.63
2022-08-12T12:22:45.096Z,25.43
2022-08-12T12:25:15.501Z,25.64
2022-08-12T12:28:05.913Z,26.21
2022-08-12T12:30:36.431Z,26.14
2022-08-12T12:33:18.045Z,26.63
2022-08-12T12:36:16.629Z,26.01
2022-08-12T12:38:37.966Z,26.05
2022-08-12T12:41:16.916Z,27.01
2022-08-12T12:43:56.526Z,26.64
2022-08-12T12:46:33.698Z,26.64
2022-08-12T12:49:06.909Z,25.56
2022-08-12T12:51:58.135Z,27.16
2022-08-12T12:54:30.821Z,26.87
2022-08-12T12:57:01.924Z,26.94
2022-08-12T12:59:54.661Z,26.03
2022-08-12T13:02:31.419Z,26.91
2022-08-12T13:05:14.974Z,26.88
2022-08-12T13:07:49.261Z,26.68
2022-08-12T13:10:30.783Z,26.28
2022-08-12T13:14:09.432Z,26.01
2022-08-12T13:15:59.052Z,25.69
2022-08-12T13:18:36.526Z,25.23
2022-08-12T13:21:15.693Z,25.70
2022-08-12T13:24:02.800Z,24.74
2022-08-12T13:26:40.796Z,25.13
2022-08-12T13:29:11.576Z,25.33
2022-08-12T13:32:17.420Z,26.12
2022-08-12T13:34:35.626Z,26.26
2022-08-12T13:37:10.152Z,25.77
2022-08-12T13:39:40.866Z,26.23
2022-08-12T13:42:13.673Z,25.96
2022-08-12T13:44:46.287Z,25.84
2022-08-12T13:47:19.415Z,25.70
2022-08-12T13:49:54.543Z,25.98
2022-08-12T13:52:28.484Z,26.38
2022-08-12T13:54:58.273Z,26.11
2022-08-12T13:57:44.610Z,26.52
2022-08-12T14:00:18.163Z,26.60
2022-08-12T14:02:48.023Z,26.27
2022-08-12T14:05:37.437Z,25.70
2022-08-12T14:08:14.365Z,24.90
2022-08-12T14:10:55.959Z,25.51
2022-08-12T14:14:05.836Z,25.71
2022-08-12T14:16:37.934Z,25.16
2022-08-12T14:19:18.411Z,24.50
2022-08-12T14:22:01.139Z,25.23
2022-08-12T14:24:40.571Z,25.14
2022-08-12T14:27:11.740Z,25.37
2022-08-12T14:30:05.164Z,25.24
2022-08-12T14:32:37.149Z,25.29
2022-08-12T14:35:11.250Z,25.32
2022-08-12T14:37:57.864Z,24.81
2022-08-12T14:40:32.694Z,25.79
2022-08-12T14:43:06.247Z,24.60
2022-08-12T14:45:45.091Z,24.96
2022-08-12T14:48:24.153Z,25.97
2022-08-12T14:52:07.831Z,25.87
2022-08-12T14:55:28.342Z,26.39
2022-08-12T14:59:57.809Z,27.23
2022-08-12T15:02:28.752Z,27.07
2022-08-12T15:04:59.854Z,27.71
2022-08-12T15:07:33.383Z,27.53
2022-08-12T15:10:13.835Z,27.16
2022-08-12T15:12:50.626Z,26.46
2022-08-12T15:15:22.984Z,26.34
2022-08-12T15:17:59.260Z,26.18
2022-08-12T15:20:37.346Z,26.06
2022-08-12T15:23:18.118Z,26.95
2022-08-12T15:26:02.695Z,26.71
2022-08-12T15:28:37.616Z,25.74
2022-08-12T15:31:09.562Z,26.23
2022-08-12T15:33:58.127Z,26.00
2022-08-12T15:36:53.615Z,26.39
2022-08-12T15:39:17.937Z,26.62
2022-08-12T15:41:50.306Z,26.86
2022-08-12T15:44:38.130Z,26.46
2022-08-12T15:47:12.698Z,27.13
2022-08-12T15:50:00.711Z,27.19
2022-08-12T15:52:32.344Z,27.49
2022-08-12T15:55:06.292Z,27.60
2022-08-12T15:57:53.214Z,28.03
2022-08-12T16:00:32.830Z,28.23
2022-08-12T16:03:05.589Z,28.05
2022-08-12T16:06:11.882Z,28.11
2022-08-12T16:08:36.899Z,28.01
2022-08-12T16:11:07.430Z,27.91
2022-08-12T16:13:44.757Z,27.88
2022-08-12T16:16:24.152Z,28.34
2022-08-12T16:18:59.651Z,28.44
2022-08-12T16:21:51.203Z,28.42
2022-08-12T16:24:22.952Z,28.74
2022-08-12T16:26:55.055Z,28.53
2022-08-12T16:29:49.324Z,28.83
2022-08-12T16:32:31.245Z,28.43
2022-08-12T16:35:02.211Z,28.39
2022-08-12T16:38:25.013Z,28.48
2022-08-12T16:40:23.398Z,28.56
2022-08-12T16:43:02.226Z,28.78
2022-08-12T16:46:05.002Z,29.17
2022-08-12T16:48:35.851Z,28.87
2022-08-12T16:51:09.514Z,28.94
2022-08-12T16:53:44.776Z,28.21
2022-08-12T16:56:17.183Z,28.29
2022-08-12T16:58:47.516Z,28.72
2022-08-12T17:01:19.607Z,28.81
2022-08-12T17:04:08.702Z,28.38
2022-08-12T17:06:41.749Z,28.38
2022-08-12T17:09:17.197Z,28.45
2022-08-12T17:11:49.777Z,28.12
2022-08-12T17:14:23.497Z,28.44
2022-08-12T17:16:55.287Z,28.60
2022-08-12T17:20:29.356Z,27.97
2022-08-12T17:22:21.591Z,27.38
2022-08-12T17:24:55.646Z,26.87
2022-08-12T17:27:26.414Z,26.87
2022-08-12T17:30:05.149Z,26.86
2022-08-12T17:32:36.992Z,26.88
2022-08-12T17:35:30.035Z,27.59
2022-08-12T17:38:11.666Z,27.39
2022-08-12T17:40:42.141Z,27.24
2022-08-12T17:43:56.392Z,27.31
2022-08-12T17:46:13.001Z,27.44
2022-08-12T17:48:55.279Z,27.72
2022-08-12T17:51:34.637Z,27.61
2022-08-12T17:54:20.495Z,27.88
2022-08-12T17:56:54.794Z,27.53
2022-08-12T17:59:48.781Z,27.82
2022-08-12T18:02:25.641Z,28.11
2022-08-12T18:05:09.486Z,28.43
2022-08-12T18:07:43.782Z,28.31
2022-08-12T18:10:14.729Z,28.72
2022-08-12T18:12:42.753Z,28.43
2022-08-12T18:15:26.930Z,28.42
2022-08-12T18:18:16.793Z,28.92
2022-08-12T18:20:47.320Z,28.66
2022-08-12T18:23:24.184Z,28.72
2022-08-12T18:26:15.237Z,29.02
2022-08-12T18:28:48.558Z,29.20
2022-08-12T18:31:22.144Z,29.28
2022-08-12T18:33:52.845Z,29.01
2022-08-12T18:36:23.531Z,30.26
2022-08-12T18:38:59.438Z,30.00
2022-08-12T18:41:32.060Z,30.49
2022-08-12T18:44:09.315Z,30.88
2022-08-12T18:46:53.844Z,31.46
2022-08-12T18:49:35.031Z,31.32
2022-08-12T18:52:11.597Z,31.93
2022-08-12T18:54:48.712Z,32.63
2022-08-12T18:58:05.997Z,32.79
2022-08-12T19:00:18.873Z,32.39
2022-08-12T19:02:53.988Z,31.83
2022-08-12T19:05:25.054Z,31.79
2022-08-12T19:08:15.927Z,31.63
2022-08-12T19:10:50.529Z,31.66
2022-08-12T19:13:34.841Z,31.84
2022-08-12T19:16:12.760Z,31.71
2022-08-12T19:18:44.477Z,32.35
2022-08-12T19:21:16.645Z,32.37
2022-08-12T19:24:09.752Z,32.76
2022-08-12T19:26:42.561Z,32.77
2022-08-12T19:29:13.467Z,32.98
2022-08-12T19:31:57.242Z,33.30
2022-08-12T19:37:38.535Z,33.61
2022-08-12T19:40:30.771Z,33.87
2022-08-12T19:43:17.313Z,33.72
2022-08-12T19:45:53.619Z,34.09
2022-08-12T19:48:27.491Z,34.10
2022-08-12T19:50:57.818Z,34.23
2022-08-12T19:53:29.211Z,33.96
2022-08-12T19:55:59.740Z,34.39
2022-08-12T19:58:32.135Z,34.43
2022-08-12T20:01:02.719Z,34.20
2022-08-12T20:03:41.450Z,34.22
2022-08-12T20:06:15.631Z,34.20
2022-08-12T20:08:56.675Z,34.39
2022-08-12T20:12:12.525Z,34.17
2022-08-12T20:14:21.810Z,34.91
2022-08-12T20:17:02.678Z,34.89
2022-08-12T20:20:00.960Z,34.84
2022-08-12T20:22:29.402Z,34.88
2022-08-12T20:25:01.579Z,35.11
2022-08-12T20:28:04.173Z,35.20
2022-08-12T20:30:37.885Z,35.00
2022-08-12T20:33:23.217Z,35.28
2022-08-12T20:36:13.261Z,35.28
2022-08-12T20:38:52.590Z,35.43
2022-08-12T20:41:25.305Z,35.22
2022-08-12T20:43:57.492Z,35.66
2022-08-12T20:46:31.881Z,35.74
2022-08-12T20:49:17.653Z,36.12
2022-08-12T20:51:55.349Z,35.67
2022-08-12T20:54:32.748Z,36.09
2022-08-12T20:57:07.527Z,36.24
2022-08-12T20:59:47.911Z,36.11
2022-08-12T21:02:24.709Z,36.21
2022-08-12T21:05:23.373Z,36.42
2022-08-12T21:07:53.135Z,36.36
2022-08-12T21:10:26.528Z,36.26
2022-08-12T21:12:56.981Z,36.93
2022-08-12T21:15:30.345Z,36.57
2022-08-12T21:18:28.373Z,36.43
2022-08-12T21:21:00.260Z,36.57
2022-08-12T21:23:31.118Z,36.50
2022-08-12T21:26:11.437Z,36.97
2022-08-12T21:28:58.089Z,36.88
2022-08-12T21:32:36.495Z,37.23
2022-08-12T21:34:29.204Z,37.66
2022-08-12T21:37:12.951Z,37.51
2022-08-12T21:39:51.984Z,37.50
2022-08-12T21:42:28.071Z,37.54
2022-08-12T21:45:46.085Z,37.90
2022-08-12T21:47:53.345Z,38.09
2022-08-12T21:50:29.477Z,38.82
2022-08-12T21:53:02.417Z,38.91
2022-08-12T21:55:40.470Z,39.47
2022-08-12T21:58:16.716Z,39.41
2022-08-12T22:00:46.579Z,39.87
2022-08-12T22:04:03.497Z,39.76
2022-08-12T22:06:31.114Z,40.28
2022-08-12T22:09:15.910Z,40.19
2022-08-12T22:11:57.057Z,40.25
2022-08-12T22:14:30.412Z,40.73
2022-08-12T22:17:05.253Z,39.98
2022-08-12T22:19:36.601Z,40.51
2022-08-12T22:22:10.127Z,40.74
2022-08-12T22:24:42.329Z,41.09
2022-08-12T22:27:31.604Z,40.96
2022-08-12T22:30:16.330Z,41.49
2022-08-12T22:32:54.919Z,41.49
2022-08-12T22:35:56.153Z,41.21
2022-08-12T22:38:31.340Z,41.45
2022-08-12T22:41:03.086Z,41.26
2022-08-12T22:44:00.604Z,41.75
2022-08-12T22:46:51.945Z,42.16
2022-08-12T22:49:26.029Z,42.60
2022-08-12T22:52:11.111Z,42.59
2022-08-12T22:54:58.026Z,42.88
2022-08-12T22:57:49.150Z,43.22
2022-08-12T23:00:27.910Z,42.98
2022-08-12T23:03:02.665Z,43.01
2022-08-12T23:06:09.506Z,42.80
2022-08-12T23:08:31.909Z,43.41
2022-08-12T23:11:08.343Z,43.67
2022-08-12T23:13:57.006Z,43.09
2022-08-12T23:16:33.488Z,43.34
2022-08-12T23:19:10.952Z,43.59
2022-08-12T23:22:05.471Z,43.60
2022-08-12T23:24:56.242Z,43.81
2022-08-12T23:27:51.305Z,43.74
2022-08-12T23:30:32.394Z,44.33
2022-08-12T23:33:13.267Z,44.66
2022-08-12T23:36:02.279Z,44.33
2022-08-12T23:38:34.787Z,44.21
2022-08-12T23:41:06.125Z,44.63
2022-08-12T23:43:41.006Z,45.07
2022-08-12T23:46:22.197Z,44.75
2022-08-12T23:48:58.619Z,44.96
2022-08-12T23:51:32.059Z,45.26
2022-08-12T23:54:07.383Z,46.22
2022-08-12T23:56:38.732Z,46.38
2022-08-12T23:59:16.707Z,46.07
